createdAt,value
2022-07-25T00:02:07.610Z,18.60
2022-07-25T00:04:35.873Z,18.60
2022-07-25T00:07:03.191Z,18.50
2022-07-25T00:09:30.017Z,18.50
2022-07-25T00:11:56.811Z,18.40
2022-07-25T00:14:23.633Z,18.40
2022-07-25T00:16:50.759Z,18.40
2022-07-25T00:19:18.238Z,18.40
2022-07-25T00:21:45.093Z,18.30
2022-07-25T00:24:11.931Z,18.30
2022-07-25T00:26:40.542Z,18.30
2022-07-25T00:29:07.658Z,18.20
2022-07-25T00:31:34.977Z,18.20
2022-07-25T00:34:02.435Z,18.10
2022-07-25T00:36:29.364Z,18.10
2022-07-25T00:38:56.208Z,18.00
2022-07-25T00:41:23.044Z,18.00
2022-07-25T00:43:52.639Z,17.90
2022-07-25T00:46:19.643Z,17.90
2022-07-25T00:48:47.745Z,17.90
2022-07-25T00:51:16.458Z,17.80
2022-07-25T00:53:44.255Z,17.80
2022-07-25T00:56:11.448Z,17.90
2022-07-25T00:58:38.263Z,17.90
2022-07-25T01:01:05.292Z,17.90
2022-07-25T01:03:32.279Z,17.90
2022-07-25T01:05:59.274Z,17.90
2022-07-25T01:08:26.216Z,17.90
2022-07-25T01:10:53.431Z,17.80
2022-07-25T01:13:20.911Z,17.80
2022-07-25T01:15:48.168Z,17.80
2022-07-25T01:18:15.137Z,17.80
2022-07-25T01:20:42.066Z,17.80
2022-07-25T01:23:09.049Z,17.80
2022-07-25T01:25:35.937Z,17.80
2022-07-25T01:28:02.948Z,17.80
2022-07-25T01:30:29.820Z,17.70
2022-07-25T01:32:56.740Z,17.70
2022-07-25T01:35:23.714Z,17.60
2022-07-25T01:37:50.503Z,17.60
2022-07-25T01:40:17.488Z,17.60
2022-07-25T01:42:44.922Z,17.50
2022-07-25T01:45:13.105Z,17.50
2022-07-25T01:47:40.804Z,17.50
2022-07-25T01:50:08.292Z,17.40
2022-07-25T01:52:36.802Z,17.40
2022-07-25T01:55:04.167Z,17.30
2022-07-25T01:57:33.131Z,17.20
2022-07-25T02:00:00.023Z,17.20
2022-07-25T02:02:27.142Z,17.20
2022-07-25T02:04:54.340Z,17.20
2022-07-25T02:07:21.238Z,17.20
2022-07-25T02:09:49.375Z,17.10
2022-07-25T02:12:19.019Z,17.10
2022-07-25T02:14:45.862Z,17.10
2022-07-25T02:17:12.788Z,17.10
2022-07-25T02:19:39.884Z,17.10
2022-07-25T02:22:06.933Z,17.10
2022-07-25T02:24:33.784Z,17.10
2022-07-25T02:27:00.638Z,17.10
2022-07-25T02:29:27.461Z,17.10
2022-07-25T02:31:54.277Z,17.10
2022-07-25T02:34:21.169Z,17.10
2022-07-25T02:36:48.046Z,17.10
2022-07-25T02:39:14.931Z,17.10
2022-07-25T02:41:42.080Z,17.10
2022-07-25T02:44:09.262Z,17.10
2022-07-25T02:46:37.014Z,17.10
2022-07-25T02:49:03.987Z,17.20
2022-07-25T02:51:30.891Z,17.20
2022-07-25T02:53:58.890Z,17.10
2022-07-25T02:56:29.829Z,17.20
2022-07-25T02:58:57.586Z,17.20
2022-07-25T03:01:24.649Z,17.20
2022-07-25T03:03:51.694Z,17.10
2022-07-25T03:06:18.736Z,17.10
2022-07-25T03:08:45.539Z,17.10
2022-07-25T03:11:13.595Z,17.10
2022-07-25T03:13:40.454Z,17.10
2022-07-25T03:16:07.884Z,17.10
2022-07-25T03:18:34.750Z,17.10
2022-07-25T03:21:01.662Z,17.10
2022-07-25T03:23:28.617Z,17.00
2022-07-25T03:25:56.155Z,17.00
2022-07-25T03:28:24.734Z,17.00
2022-07-25T03:30:52.607Z,17.00
2022-07-25T03:33:19.457Z,17.00
2022-07-25T03:35:46.609Z,17.00
2022-07-25T03:38:13.461Z,17.00
2022-07-25T03:40:40.346Z,17.00
2022-07-25T03:43:07.269Z,17.00
2022-07-25T03:45:34.151Z,17.00
2022-07-25T03:48:01.127Z,17.00
2022-07-25T03:50:28.360Z,16.90
2022-07-25T03:52:55.207Z,16.90
2022-07-25T03:55:22.214Z,16.90
2022-07-25T03:57:49.028Z,16.90
2022-07-25T04:00:16.064Z,16.90
2022-07-25T04:02:43.048Z,16.90
2022-07-25T04:05:10.722Z,16.90
2022-07-25T04:07:38.212Z,16.90
2022-07-25T04:10:06.283Z,16.80
2022-07-25T04:12:33.439Z,16.80
2022-07-25T04:15:00.370Z,16.80
2022-07-25T04:17:27.224Z,16.80
2022-07-25T04:19:54.268Z,16.70
2022-07-25T04:22:22.515Z,16.70
2022-07-25T04:24:49.382Z,16.70
2022-07-25T04:27:16.753Z,16.70
2022-07-25T04:29:43.575Z,16.70
2022-07-25T04:32:10.474Z,16.70
2022-07-25T04:34:37.439Z,16.70
2022-07-25T04:37:04.240Z,16.70
2022-07-25T04:39:31.089Z,16.70
2022-07-25T04:41:57.908Z,16.70
2022-07-25T04:44:24.712Z,16.70
2022-07-25T04:46:51.565Z,16.70
2022-07-25T04:49:18.503Z,16.80
2022-07-25T04:51:46.187Z,16.80
2022-07-25T04:54:14.592Z,16.80
2022-07-25T04:56:41.517Z,16.90
2022-07-25T04:59:08.338Z,16.90
2022-07-25T05:01:35.548Z,16.90
2022-07-25T05:04:02.591Z,17.00
2022-07-25T05:06:29.601Z,17.00
2022-07-25T05:08:56.516Z,17.10
2022-07-25T05:11:23.350Z,17.20
2022-07-25T05:13:50.219Z,17.20
2022-07-25T05:16:17.177Z,17.20
2022-07-25T05:18:44.011Z,17.30
2022-07-25T05:21:12.465Z,17.30
2022-07-25T05:23:39.896Z,17.40
2022-07-25T05:26:06.927Z,17.40
2022-07-25T05:28:34.035Z,17.50
2022-07-25T05:31:01.125Z,17.60
2022-07-25T05:33:28.052Z,17.70
2022-07-25T05:35:54.892Z,17.80
2022-07-25T05:38:21.880Z,17.90
2022-07-25T05:40:49.256Z,18.00
2022-07-25T05:43:16.128Z,18.10
2022-07-25T05:45:43.267Z,18.10
2022-07-25T05:48:10.188Z,18.20
2022-07-25T05:50:37.555Z,18.20
2022-07-25T05:53:04.452Z,18.40
2022-07-25T05:55:31.320Z,18.50
2022-07-25T05:57:58.303Z,18.60
2022-07-25T06:00:25.470Z,18.70
2022-07-25T06:02:52.451Z,18.80
2022-07-25T06:05:19.420Z,18.90
2022-07-25T06:07:46.308Z,19.10
2022-07-25T06:10:13.142Z,19.30
2022-07-25T06:12:39.943Z,19.30
2022-07-25T06:15:07.955Z,19.50
2022-07-25T06:17:39.538Z,19.60
2022-07-25T06:20:07.539Z,19.60
2022-07-25T06:22:34.418Z,19.70
2022-07-25T06:25:04.555Z,19.80
2022-07-25T06:27:31.572Z,19.90
2022-07-25T06:29:58.495Z,20.00
2022-07-25T06:32:25.343Z,20.00
2022-07-25T06:34:52.187Z,20.10
2022-07-25T06:37:19.021Z,20.20
2022-07-25T06:39:46.287Z,20.30
2022-07-25T06:42:13.218Z,20.40
2022-07-25T06:44:40.508Z,20.40
2022-07-25T06:47:12.610Z,20.60
2022-07-25T06:49:42.992Z,20.70
2022-07-25T06:52:10.175Z,20.80
2022-07-25T06:54:37.114Z,20.80
2022-07-25T06:57:04.675Z,20.90
2022-07-25T06:59:31.686Z,21.00
2022-07-25T07:01:58.556Z,21.10
2022-07-25T07:04:25.403Z,21.30
2022-07-25T07:06:52.403Z,21.40
2022-07-25T07:09:19.242Z,21.40
2022-07-25T07:11:46.049Z,21.60
2022-07-25T07:14:12.862Z,21.60
2022-07-25T07:16:41.411Z,21.80
2022-07-25T07:19:11.061Z,21.90
2022-07-25T07:21:38.107Z,22.10
2022-07-25T07:24:05.253Z,22.20
2022-07-25T07:26:50.434Z,22.40
2022-07-25T07:29:17.267Z,22.50
2022-07-25T07:31:44.152Z,22.80
2022-07-25T07:34:11.484Z,22.90
2022-07-25T07:36:43.022Z,23.00
2022-07-25T07:39:09.958Z,23.00
2022-07-25T07:41:36.971Z,23.20
2022-07-25T07:44:05.055Z,23.30
2022-07-25T07:46:31.957Z,23.30
2022-07-25T07:48:58.931Z,23.40
2022-07-25T07:51:25.768Z,23.60
2022-07-25T07:54:11.357Z,23.70
2022-07-25T07:56:39.497Z,23.80
2022-07-25T07:59:06.512Z,23.80
2022-07-25T08:01:34.318Z,23.90
2022-07-25T08:04:01.166Z,24.10
2022-07-25T08:06:28.034Z,24.10
2022-07-25T08:08:55.265Z,24.30
2022-07-25T08:11:22.137Z,24.50
2022-07-25T08:13:48.943Z,24.60
2022-07-25T08:16:16.197Z,24.80
2022-07-25T08:18:43.092Z,25.00
2022-07-25T08:21:10.973Z,25.10
2022-07-25T08:23:40.801Z,25.20
2022-07-25T08:26:07.894Z,25.50
2022-07-25T08:28:34.694Z,25.60
2022-07-25T08:31:01.715Z,25.60
2022-07-25T08:33:29.094Z,25.70
2022-07-25T08:35:56.483Z,25.90
2022-07-25T08:38:25.401Z,26.00
2022-07-25T08:40:54.533Z,26.20
2022-07-25T08:43:22.305Z,26.20
2022-07-25T08:45:51.903Z,26.30
2022-07-25T08:48:20.831Z,26.30
2022-07-25T08:50:49.030Z,26.50
2022-07-25T08:53:35.319Z,26.50
2022-07-25T08:56:11.587Z,26.60
2022-07-25T08:58:39.862Z,26.80
2022-07-25T09:01:08.086Z,27.00
2022-07-25T09:03:36.371Z,27.10
2022-07-25T09:06:17.732Z,27.40
2022-07-25T09:08:59.544Z,27.60
2022-07-25T09:11:27.618Z,28.00
2022-07-25T09:14:07.452Z,28.10
2022-07-25T09:16:41.077Z,28.40
2022-07-25T09:19:13.813Z,28.70
2022-07-25T09:21:42.877Z,28.90
2022-07-25T09:24:12.383Z,29.00
2022-07-25T09:26:48.538Z,29.30
2022-07-25T09:29:34.135Z,29.60
2022-07-25T09:32:02.592Z,29.70
2022-07-25T09:34:40.905Z,29.90
2022-07-25T09:37:09.476Z,30.10
2022-07-25T09:39:47.001Z,30.30
2022-07-25T09:42:32.248Z,30.40
2022-07-25T09:45:06.639Z,30.60
2022-07-25T09:47:36.876Z,30.80
2022-07-25T09:50:05.754Z,30.80
2022-07-25T09:52:33.818Z,31.00
2022-07-25T09:55:04.486Z,31.30
2022-07-25T09:57:31.337Z,31.50
2022-07-25T10:00:00.521Z,31.60
2022-07-25T10:02:39.668Z,31.80
2022-07-25T10:05:06.563Z,31.80
2022-07-25T10:07:38.722Z,31.70
2022-07-25T10:10:06.566Z,31.90
2022-07-25T10:12:33.679Z,32.20
2022-07-25T10:15:12.239Z,32.40
2022-07-25T10:17:40.909Z,32.20
2022-07-25T10:20:11.225Z,32.50
2022-07-25T10:22:56.302Z,32.50
2022-07-25T10:25:24.261Z,32.70
2022-07-25T10:27:59.962Z,32.70
2022-07-25T10:30:37.513Z,33.00
2022-07-25T10:33:17.761Z,33.10
2022-07-25T10:35:45.515Z,33.00
2022-07-25T10:38:12.893Z,32.90
2022-07-25T10:40:45.113Z,33.20
2022-07-25T10:43:15.237Z,33.30
2022-07-25T10:45:52.239Z,33.50
2022-07-25T10:48:30.610Z,33.50
2022-07-25T10:50:57.554Z,33.60
2022-07-25T10:53:31.716Z,33.80
2022-07-25T10:56:06.958Z,33.80
2022-07-25T10:58:43.499Z,33.80
2022-07-25T11:01:10.631Z,33.90
2022-07-25T11:03:37.528Z,34.20
2022-07-25T11:06:04.495Z,34.20
2022-07-25T11:08:35.848Z,34.20
2022-07-25T11:11:03.248Z,34.30
2022-07-25T11:13:30.257Z,34.40
2022-07-25T11:15:58.737Z,34.50
2022-07-25T11:18:37.784Z,34.70
2022-07-25T11:21:08.919Z,34.70
2022-07-25T11:23:36.472Z,34.50
2022-07-25T11:26:12.142Z,34.70
2022-07-25T11:28:44.744Z,35.00
2022-07-25T11:31:13.462Z,34.80
2022-07-25T11:33:43.570Z,34.80
2022-07-25T11:36:12.205Z,34.50
2022-07-25T11:38:40.528Z,34.80
2022-07-25T11:41:08.357Z,34.90
2022-07-25T11:43:35.256Z,34.90
2022-07-25T11:46:07.245Z,34.80
2022-07-25T11:48:37.173Z,34.60
2022-07-25T11:51:17.987Z,34.70
2022-07-25T11:53:48.250Z,34.80
2022-07-25T11:56:40.691Z,35.10
2022-07-25T11:59:04.738Z,35.20
2022-07-25T12:01:37.654Z,35.20
2022-07-25T12:04:20.227Z,35.10
2022-07-25T12:06:50.844Z,35.10
2022-07-25T12:09:19.731Z,35.20
2022-07-25T12:11:48.303Z,35.30
2022-07-25T12:14:15.577Z,35.40
2022-07-25T12:16:42.859Z,35.60
2022-07-25T12:19:19.019Z,35.60
2022-07-25T12:21:46.146Z,35.40
2022-07-25T12:24:13.236Z,35.40
2022-07-25T12:26:40.098Z,35.30
2022-07-25T12:29:07.252Z,35.40
2022-07-25T12:31:34.674Z,35.40
2022-07-25T12:34:01.572Z,35.50
2022-07-25T12:36:28.578Z,35.50
2022-07-25T12:38:55.392Z,35.70
2022-07-25T12:41:23.644Z,35.70
2022-07-25T12:43:50.525Z,35.80
2022-07-25T12:46:17.581Z,35.70
2022-07-25T12:48:44.739Z,35.70
2022-07-25T12:51:11.621Z,35.70
2022-07-25T12:53:42.237Z,35.70
2022-07-25T12:56:09.738Z,35.80
2022-07-25T12:58:37.497Z,35.70
2022-07-25T13:01:05.887Z,35.80
2022-07-25T13:03:32.849Z,35.80
2022-07-25T13:05:59.758Z,35.90
2022-07-25T13:08:27.541Z,35.80
2022-07-25T13:10:54.486Z,35.60
2022-07-25T13:13:21.315Z,35.40
2022-07-25T13:15:48.135Z,35.80
2022-07-25T13:18:15.029Z,35.70
2022-07-25T13:20:41.913Z,35.80
2022-07-25T13:23:08.763Z,36.00
2022-07-25T13:25:36.505Z,35.90
2022-07-25T13:28:04.361Z,35.80
2022-07-25T13:30:38.003Z,35.90
2022-07-25T13:33:04.976Z,36.00
2022-07-25T13:35:38.552Z,36.00
2022-07-25T13:38:08.656Z,36.00
2022-07-25T13:40:37.410Z,36.00
2022-07-25T13:43:04.216Z,35.90
2022-07-25T13:45:31.439Z,35.90
2022-07-25T13:48:26.829Z,35.90
2022-07-25T13:50:45.260Z,35.90
2022-07-25T13:53:12.105Z,35.80
2022-07-25T13:55:39.386Z,35.80
2022-07-25T13:58:06.545Z,35.60
2022-07-25T14:00:33.615Z,35.60
2022-07-25T14:03:00.625Z,35.50
2022-07-25T14:05:27.666Z,35.70
2022-07-25T14:07:54.612Z,35.60
2022-07-25T14:10:21.436Z,35.60
2022-07-25T14:12:48.502Z,35.50
2022-07-25T14:15:15.381Z,35.60
2022-07-25T14:17:42.281Z,36.00
2022-07-25T14:20:09.921Z,36.00
2022-07-25T14:22:36.959Z,36.00
2022-07-25T14:25:04.165Z,35.90
2022-07-25T14:27:31.033Z,35.80
2022-07-25T14:29:57.846Z,35.90
2022-07-25T14:32:24.673Z,35.90
2022-07-25T14:34:52.643Z,36.00
2022-07-25T14:37:20.838Z,36.00
2022-07-25T14:39:48.300Z,35.80
2022-07-25T14:42:15.326Z,35.70
2022-07-25T14:44:42.186Z,35.70
2022-07-25T14:47:12.630Z,35.70
2022-07-25T14:49:41.106Z,35.60
2022-07-25T14:52:08.027Z,35.40
2022-07-25T14:54:34.946Z,35.40
2022-07-25T14:57:02.606Z,35.50
2022-07-25T14:59:29.570Z,35.40
2022-07-25T15:01:56.865Z,35.50
2022-07-25T15:04:25.256Z,35.60
2022-07-25T15:06:55.535Z,35.50
2022-07-25T15:09:22.577Z,35.30
2022-07-25T15:11:49.630Z,35.40
2022-07-25T15:14:16.511Z,35.40
2022-07-25T15:16:43.930Z,35.50
2022-07-25T15:19:16.423Z,35.40
2022-07-25T15:21:44.598Z,35.50
2022-07-25T15:24:11.833Z,35.50
2022-07-25T15:26:38.790Z,35.30
2022-07-25T15:29:10.451Z,35.30
2022-07-25T15:31:38.165Z,35.40
2022-07-25T15:34:05.112Z,35.40
2022-07-25T15:36:31.982Z,35.30
2022-07-25T15:38:58.814Z,35.10
2022-07-25T15:41:26.745Z,35.10
2022-07-25T15:43:53.772Z,35.10
2022-07-25T15:46:20.730Z,34.80
2022-07-25T15:48:48.996Z,34.80
2022-07-25T15:51:19.553Z,34.50
2022-07-25T15:53:46.551Z,34.50
2022-07-25T15:56:16.595Z,34.40
2022-07-25T15:58:44.181Z,34.20
2022-07-25T16:01:11.063Z,34.30
2022-07-25T16:03:38.395Z,34.20
2022-07-25T16:06:05.353Z,34.20
2022-07-25T16:08:32.465Z,34.20
2022-07-25T16:11:00.147Z,34.10
2022-07-25T16:13:27.225Z,34.10
2022-07-25T16:15:54.213Z,34.00
2022-07-25T16:18:21.330Z,34.00
2022-07-25T16:20:48.507Z,33.90
2022-07-25T16:23:15.636Z,34.00
2022-07-25T16:25:43.758Z,33.80
2022-07-25T16:28:10.712Z,33.70
2022-07-25T16:30:37.596Z,33.60
2022-07-25T16:33:04.510Z,33.60
2022-07-25T16:35:32.461Z,33.50
2022-07-25T16:37:59.346Z,33.40
2022-07-25T16:40:30.751Z,33.30
2022-07-25T16:42:58.845Z,33.20
2022-07-25T16:45:26.957Z,33.00
2022-07-25T16:47:54.931Z,33.10
2022-07-25T16:50:21.864Z,33.10
2022-07-25T16:52:48.770Z,33.10
2022-07-25T16:55:15.682Z,33.10
2022-07-25T16:57:42.624Z,33.10
2022-07-25T17:00:10.028Z,33.10
2022-07-25T17:02:36.950Z,33.00
2022-07-25T17:05:04.539Z,32.80
2022-07-25T17:09:59.291Z,32.70
2022-07-25T17:12:26.336Z,32.80
2022-07-25T17:14:53.911Z,32.70
2022-07-25T17:17:20.764Z,32.50
2022-07-25T17:19:47.706Z,32.30
2022-07-25T17:22:14.853Z,32.10
2022-07-25T17:24:42.041Z,32.00
2022-07-25T17:27:09.416Z,32.00
2022-07-25T17:29:36.824Z,31.80
2022-07-25T17:32:06.026Z,31.80
2022-07-25T17:34:33.118Z,31.80
2022-07-25T17:37:03.274Z,31.60
2022-07-25T17:39:30.854Z,31.60
2022-07-25T17:41:57.699Z,31.60
2022-07-25T17:44:25.145Z,31.50
2022-07-25T17:46:53.666Z,31.40
2022-07-25T17:49:21.769Z,31.40
2022-07-25T17:51:48.749Z,31.30
2022-07-25T17:54:15.753Z,31.30
2022-07-25T17:56:42.607Z,31.20
2022-07-25T17:59:09.411Z,31.10
2022-07-25T18:01:36.296Z,31.10
2022-07-25T18:04:03.920Z,31.00
2022-07-25T18:06:30.987Z,30.80
2022-07-25T18:08:58.183Z,30.70
2022-07-25T18:11:25.080Z,30.50
2022-07-25T18:13:51.880Z,30.10
2022-07-25T18:16:18.838Z,29.90
2022-07-25T18:18:45.740Z,29.70
2022-07-25T18:21:12.588Z,29.50
2022-07-25T18:23:39.421Z,29.40
2022-07-25T18:26:06.356Z,29.20
2022-07-25T18:28:33.199Z,29.10
2022-07-25T18:31:00.203Z,29.00
2022-07-25T18:33:27.136Z,28.90
2022-07-25T18:35:54.028Z,28.80
2022-07-25T18:38:20.841Z,28.70
2022-07-25T18:40:49.443Z,28.70
2022-07-25T18:43:16.408Z,28.60
2022-07-25T18:45:43.403Z,28.50
2022-07-25T18:48:11.583Z,28.40
2022-07-25T18:50:38.404Z,28.30
2022-07-25T18:53:05.429Z,28.20
2022-07-25T18:55:32.448Z,28.10
2022-07-25T18:57:59.291Z,28.00
2022-07-25T19:00:26.214Z,28.00
2022-07-25T19:02:53.005Z,27.90
2022-07-25T19:05:20.292Z,27.80
2022-07-25T19:07:47.264Z,27.70
2022-07-25T19:10:14.436Z,27.60
2022-07-25T19:12:41.428Z,27.50
2022-07-25T19:15:08.720Z,27.50
2022-07-25T19:17:37.105Z,27.40
2022-07-25T19:20:05.085Z,27.40
2022-07-25T19:22:31.959Z,27.30
2022-07-25T19:25:01.120Z,27.30
2022-07-25T19:27:28.891Z,27.30
2022-07-25T19:29:56.109Z,27.20
2022-07-25T19:32:23.082Z,27.10
2022-07-25T19:34:49.983Z,27.10
2022-07-25T19:37:16.933Z,27.00
2022-07-25T19:39:43.904Z,27.00
2022-07-25T19:42:12.327Z,26.90
2022-07-25T19:44:39.163Z,26.80
2022-07-25T19:47:09.860Z,26.70
2022-07-25T19:49:39.674Z,26.70
2022-07-25T19:52:07.657Z,26.60
2022-07-25T19:54:34.599Z,26.60
2022-07-25T19:57:02.314Z,26.50
2022-07-25T19:59:29.128Z,26.50
2022-07-25T20:01:55.975Z,26.40
2022-07-25T20:04:23.249Z,26.40
2022-07-25T20:06:50.779Z,26.40
2022-07-25T20:09:18.281Z,26.30
2022-07-25T20:11:45.437Z,26.30
2022-07-25T20:14:12.373Z,26.20
2022-07-25T20:16:40.004Z,26.20
2022-07-25T20:19:09.599Z,26.10
2022-07-25T20:21:38.249Z,26.00
2022-07-25T20:24:05.368Z,26.00
2022-07-25T20:26:32.294Z,25.90
2022-07-25T20:28:59.134Z,25.90
2022-07-25T20:31:26.132Z,25.80
2022-07-25T20:33:53.299Z,25.50
2022-07-25T20:36:20.437Z,25.40
2022-07-25T20:38:47.432Z,25.30
2022-07-25T20:41:15.370Z,25.20
2022-07-25T20:43:42.398Z,25.10
2022-07-25T20:46:09.601Z,25.10
2022-07-25T20:48:36.755Z,24.90
2022-07-25T20:51:03.971Z,24.90
2022-07-25T20:53:30.966Z,24.60
2022-07-25T20:55:58.455Z,23.70
2022-07-25T20:58:25.330Z,23.30
2022-07-25T21:00:52.337Z,23.10
2022-07-25T21:03:19.282Z,22.80
2022-07-25T21:05:46.277Z,22.70
2022-07-25T21:08:13.109Z,22.60
2022-07-25T21:10:39.923Z,22.50
2022-07-25T21:13:07.117Z,22.40
2022-07-25T21:15:34.821Z,22.20
2022-07-25T21:18:01.660Z,22.10
2022-07-25T21:20:28.681Z,22.00
2022-07-25T21:22:55.559Z,22.00
2022-07-25T21:25:22.632Z,21.90
2022-07-25T21:27:52.797Z,21.80
2022-07-25T21:30:19.731Z,21.80
2022-07-25T21:32:46.619Z,21.70
2022-07-25T21:35:13.470Z,21.70
2022-07-25T21:37:40.476Z,21.70
2022-07-25T21:40:08.132Z,21.80
2022-07-25T21:42:36.335Z,21.70
2022-07-25T21:45:03.550Z,21.60
2022-07-25T21:47:30.473Z,21.50
2022-07-25T21:50:24.150Z,21.50
2022-07-25T21:52:51.903Z,21.40
2022-07-25T21:55:18.795Z,21.30
2022-07-25T21:57:45.581Z,21.30
2022-07-25T22:00:13.371Z,21.40
2022-07-25T22:02:42.352Z,21.40
2022-07-25T22:05:10.005Z,21.40
2022-07-25T22:07:36.945Z,21.30
2022-07-25T22:10:07.633Z,21.30
2022-07-25T22:12:34.456Z,21.20
2022-07-25T22:15:01.329Z,21.10
2022-07-25T22:17:28.166Z,21.10
2022-07-25T22:20:15.021Z,21.20
2022-07-25T22:22:41.940Z,21.10
2022-07-25T22:25:09.320Z,21.10
2022-07-25T22:27:36.199Z,21.10
2022-07-25T22:30:04.050Z,21.10
2022-07-25T22:32:30.911Z,21.00
2022-07-25T22:34:57.749Z,21.00
2022-07-25T22:37:24.560Z,21.00
2022-07-25T22:39:51.918Z,21.00
2022-07-25T22:42:23.403Z,21.10
2022-07-25T22:44:50.229Z,21.00
2022-07-25T22:47:17.017Z,21.00
2022-07-25T22:49:43.799Z,21.00
2022-07-25T22:52:10.610Z,20.90
2022-07-25T22:54:37.562Z,20.90
2022-07-25T22:57:04.552Z,20.80
2022-07-25T22:59:31.421Z,20.70
2022-07-25T23:01:58.214Z,20.60
2022-07-25T23:04:25.068Z,20.60
2022-07-25T23:09:36.486Z,20.50
2022-07-25T23:12:05.307Z,20.50
2022-07-25T23:14:32.157Z,20.50
2022-07-25T23:17:17.021Z,20.40
2022-07-25T23:19:55.005Z,20.40
2022-07-25T23:22:23.763Z,20.40
2022-07-25T23:24:50.595Z,20.30
2022-07-25T23:27:17.786Z,20.30
2022-07-25T23:29:44.867Z,20.20
2022-07-25T23:32:11.802Z,20.30
2022-07-25T23:34:38.957Z,20.20
2022-07-25T23:37:05.846Z,20.30
2022-07-25T23:39:33.474Z,20.20
2022-07-25T23:42:00.788Z,20.20
2022-07-25T23:44:27.661Z,20.30
2022-07-25T23:46:56.741Z,20.20
2022-07-25T23:49:24.243Z,20.20
2022-07-25T23:51:51.162Z,20.30
2022-07-25T23:54:18.070Z,20.30
2022-07-25T23:56:44.870Z,20.30
2022-07-25T23:59:11.821Z,20.30
